createdAt,value
2018-04-12T00:00:29.025Z,22.00
2018-04-12T00:01:03.536Z,19.95
2018-04-12T00:01:38.042Z,20.80
2018-04-12T00:02:12.523Z,18.58
2018-04-12T00:02:46.263Z,15.45
2018-04-12T00:03:20.076Z,23.85
2018-04-12T00:03:53.799Z,24.95
2018-04-12T00:04:27.520Z,22.55
2018-04-12T00:05:02.066Z,13.40
2018-04-12T00:05:35.806Z,21.02
2018-04-12T00:06:09.520Z,15.45
2018-04-12T00:06:43.252Z,15.63
2018-04-12T00:07:16.978Z,23.17
2018-04-12T00:07:50.714Z,17.25
2018-04-12T00:08:24.434Z,23.30
2018-04-12T00:08:58.160Z,18.52
2018-04-12T00:09:32.642Z,19.62
2018-04-12T00:10:06.392Z,17.65
2018-04-12T00:10:40.270Z,20.80
2018-04-12T00:11:14.749Z,14.95
2018-04-12T00:11:48.476Z,19.42
2018-04-12T00:12:23.152Z,23.90
2018-04-12T00:12:57.650Z,15.65
2018-04-12T00:13:31.384Z,19.08
2018-04-12T00:14:05.123Z,16.58
2018-04-12T00:14:38.848Z,19.30
2018-04-12T00:15:13.610Z,19.33
2018-04-12T00:15:47.339Z,18.10
2018-04-12T00:16:21.830Z,20.73
2018-04-12T00:16:55.561Z,17.12
2018-04-12T00:17:30.067Z,18.02
2018-04-12T00:18:04.553Z,17.10
2018-04-12T00:18:38.302Z,19.33
2018-04-12T00:19:12.019Z,19.73
2018-04-12T00:19:45.850Z,18.92
2018-04-12T00:20:20.411Z,16.60
2018-04-12T00:20:54.140Z,20.80
2018-04-12T00:21:27.856Z,21.17
2018-04-12T00:22:01.637Z,18.00
2018-04-12T00:22:36.142Z,22.83
2018-04-12T00:23:10.627Z,17.23
2018-04-12T00:23:44.342Z,17.98
2018-04-12T00:24:18.915Z,16.80
2018-04-12T00:24:52.641Z,20.23
2018-04-12T00:25:26.933Z,20.55
2018-04-12T00:26:00.651Z,31.87
2018-04-12T00:26:34.381Z,29.90
2018-04-12T00:27:08.104Z,13.90
2018-04-12T00:27:41.607Z,18.10
2018-04-12T00:28:15.895Z,19.73
2018-04-12T00:28:50.382Z,19.48
2018-04-12T00:29:24.211Z,25.23
2018-04-12T00:29:58.748Z,22.42
2018-04-12T00:30:32.267Z,20.83
2018-04-12T00:31:06.000Z,21.20
2018-04-12T00:31:40.545Z,18.33
2018-04-12T00:32:14.350Z,21.77
2018-04-12T00:32:48.078Z,17.95
2018-04-12T00:33:21.808Z,15.80
2018-04-12T00:33:55.597Z,19.90
2018-04-12T00:34:29.320Z,13.75
2018-04-12T00:35:03.075Z,18.70
2018-04-12T00:35:36.834Z,14.02
2018-04-12T00:36:10.620Z,20.23
2018-04-12T00:36:44.358Z,16.65
2018-04-12T00:37:18.083Z,21.27
2018-04-12T00:37:51.817Z,16.25
2018-04-12T00:38:26.305Z,19.60
2018-04-12T00:39:00.253Z,23.10
2018-04-12T00:39:33.972Z,21.02
2018-04-12T00:40:07.696Z,22.65
2018-04-12T00:40:42.232Z,24.85
2018-04-12T00:41:15.960Z,20.00
2018-04-12T00:41:49.691Z,20.00
2018-04-12T00:42:24.189Z,19.58
2018-04-12T00:42:57.910Z,26.60
2018-04-12T00:43:31.633Z,20.30
2018-04-12T00:44:05.372Z,17.58
2018-04-12T00:44:39.883Z,16.08
2018-04-12T00:45:14.365Z,19.23
2018-04-12T00:45:48.136Z,21.60
2018-04-12T00:46:21.867Z,18.50
2018-04-12T00:46:56.373Z,22.98
2018-04-12T00:47:30.090Z,27.83
2018-04-12T00:48:03.481Z,19.30
2018-04-12T00:48:37.197Z,24.83
2018-04-12T00:49:10.932Z,21.67
2018-04-12T00:49:44.648Z,24.30
2018-04-12T00:50:18.415Z,19.40
2018-04-12T00:50:52.939Z,21.08
2018-04-12T00:51:26.669Z,22.42
2018-04-12T00:52:00.426Z,22.13
2018-04-12T00:52:34.159Z,17.95
2018-04-12T00:53:07.877Z,17.77
2018-04-12T00:53:52.539Z,19.20
2018-04-12T00:54:26.815Z,20.42
2018-04-12T00:55:00.577Z,20.95
2018-04-12T00:55:34.324Z,21.30
2018-04-12T00:56:08.656Z,19.92
2018-04-12T00:56:42.395Z,22.33
2018-04-12T00:57:16.135Z,23.65
2018-04-12T00:57:49.862Z,23.48
2018-04-12T00:58:23.654Z,21.27
2018-04-12T00:58:57.390Z,16.92
2018-04-12T00:59:31.881Z,20.60
2018-04-12T01:00:06.040Z,25.85
2018-04-12T01:00:39.856Z,18.77
2018-04-12T01:01:13.695Z,33.97
2018-04-12T01:01:47.422Z,22.33
2018-04-12T01:02:21.162Z,17.52
2018-04-12T01:02:55.663Z,23.17
2018-04-12T01:03:29.449Z,17.65
2018-04-12T01:04:03.195Z,18.50
2018-04-12T01:04:36.934Z,18.80
2018-04-12T01:05:10.653Z,24.15
2018-04-12T01:05:44.370Z,26.50
2018-04-12T01:06:18.123Z,22.33
2018-04-12T01:06:52.649Z,21.30
2018-04-12T01:07:26.399Z,19.62
2018-04-12T01:08:00.139Z,16.90
2018-04-12T01:08:33.886Z,23.95
2018-04-12T01:09:07.286Z,23.27
2018-04-12T01:09:41.770Z,16.10
2018-04-12T01:10:15.506Z,28.05
2018-04-12T01:10:49.230Z,23.50
2018-04-12T01:11:22.960Z,17.50
2018-04-12T01:11:57.450Z,19.95
2018-04-12T01:12:31.186Z,25.30
2018-04-12T01:13:04.941Z,20.70
2018-04-12T01:13:38.664Z,23.23
2018-04-12T01:14:12.153Z,18.58
2018-04-12T01:14:45.891Z,19.80
2018-04-12T01:15:19.632Z,26.42
2018-04-12T01:15:53.389Z,19.30
2018-04-12T01:16:27.113Z,21.42
2018-04-12T01:17:00.870Z,18.12
2018-04-12T01:17:34.596Z,19.40
2018-04-12T01:18:08.327Z,17.62
2018-04-12T01:18:41.814Z,23.40
2018-04-12T01:19:15.314Z,17.42
2018-04-12T01:19:49.047Z,24.80
2018-04-12T01:20:22.568Z,24.02
2018-04-12T01:20:56.329Z,18.95
2018-04-12T01:21:30.172Z,28.08
2018-04-12T01:22:03.910Z,23.62
2018-04-12T01:22:37.641Z,24.08
2018-04-12T01:23:11.393Z,20.02
2018-04-12T01:23:45.133Z,19.25
2018-04-12T01:24:18.525Z,26.85
2018-04-12T01:24:52.257Z,33.35
2018-04-12T01:25:25.978Z,26.75
2018-04-12T01:25:59.741Z,20.73
2018-04-12T01:26:33.469Z,28.92
2018-04-12T01:27:07.193Z,23.00
2018-04-12T01:27:41.934Z,16.15
2018-04-12T01:28:15.697Z,23.70
2018-04-12T01:28:49.448Z,22.62
2018-04-12T01:29:23.193Z,20.10
2018-04-12T01:29:57.692Z,30.48
2018-04-12T01:30:32.197Z,21.85
2018-04-12T01:31:06.144Z,30.60
2018-04-12T01:31:39.944Z,21.08
2018-04-12T01:32:13.465Z,25.05
2018-04-12T01:32:58.320Z,20.98
2018-04-12T01:33:32.080Z,24.87
2018-04-12T01:34:05.802Z,26.70
2018-04-12T01:34:39.530Z,24.92
2018-04-12T01:35:13.039Z,23.75
2018-04-12T01:35:46.536Z,20.65
2018-04-12T01:36:20.289Z,22.40
2018-04-12T01:36:54.028Z,28.55
2018-04-12T01:37:27.761Z,23.38
2018-04-12T01:38:01.496Z,25.48
2018-04-12T01:38:35.242Z,21.45
2018-04-12T01:39:09.748Z,24.15
2018-04-12T01:39:44.243Z,24.63
2018-04-12T01:40:17.961Z,23.12
2018-04-12T01:40:51.738Z,24.60
2018-04-12T01:41:26.255Z,30.65
2018-04-12T01:42:00.765Z,26.25
2018-04-12T01:42:35.281Z,26.17
2018-04-12T01:43:09.774Z,26.70
2018-04-12T01:43:45.001Z,25.58
2018-04-12T01:44:18.493Z,25.40
2018-04-12T01:44:52.767Z,26.85
2018-04-12T01:45:26.495Z,22.50
2018-04-12T01:45:59.989Z,19.30
2018-04-12T01:46:33.787Z,22.20
2018-04-12T01:47:07.530Z,25.08
2018-04-12T01:47:41.819Z,21.40
2018-04-12T01:48:15.550Z,25.83
2018-04-12T01:48:50.059Z,23.87
2018-04-12T01:49:24.536Z,27.40
2018-04-12T01:49:58.269Z,30.65
2018-04-12T01:50:32.765Z,25.85
2018-04-12T01:51:07.254Z,32.22
2018-04-12T01:51:41.268Z,24.83
2018-04-12T01:52:15.529Z,25.95
2018-04-12T01:52:49.033Z,29.02
2018-04-12T01:53:22.774Z,30.42
2018-04-12T01:53:56.293Z,23.15
2018-04-12T01:54:29.788Z,24.70
2018-04-12T01:55:02.943Z,23.73
2018-04-12T01:55:36.666Z,28.92
2018-04-12T01:56:10.380Z,29.92
2018-04-12T01:56:44.889Z,32.30
2018-04-12T01:57:19.376Z,28.45
2018-04-12T01:57:53.107Z,27.75
2018-04-12T01:58:26.842Z,28.50
2018-04-12T01:59:00.598Z,25.77
2018-04-12T01:59:34.117Z,23.67
2018-04-12T02:00:07.517Z,26.87
2018-04-12T02:00:40.941Z,30.60
2018-04-12T02:01:14.671Z,27.33
2018-04-12T02:01:48.483Z,27.95
2018-04-12T02:02:22.218Z,30.77
2018-04-12T02:02:55.953Z,29.37
2018-04-12T02:03:29.680Z,30.95
2018-04-12T02:04:04.173Z,28.80
2018-04-12T02:04:37.894Z,29.35
2018-04-12T02:05:11.619Z,27.20
2018-04-12T02:05:45.332Z,28.65
2018-04-12T02:06:19.068Z,22.87
2018-04-12T02:06:52.817Z,34.03
2018-04-12T02:07:26.547Z,35.35
2018-04-12T02:08:00.307Z,31.77
2018-04-12T02:08:34.816Z,40.08
2018-04-12T02:09:08.551Z,25.02
2018-04-12T02:09:42.271Z,30.12
2018-04-12T02:10:15.765Z,29.90
2018-04-12T02:10:49.280Z,29.15
2018-04-12T02:11:22.789Z,29.35
2018-04-12T02:11:56.527Z,36.85
2018-04-12T02:12:30.275Z,31.40
2018-04-12T02:13:03.792Z,30.58
2018-04-12T02:13:37.304Z,40.42
2018-04-12T02:14:10.793Z,32.60
2018-04-12T02:14:44.526Z,32.63
2018-04-12T02:15:18.273Z,30.40
2018-04-12T02:15:51.784Z,32.83
2018-04-12T02:16:26.259Z,27.75
2018-04-12T02:16:59.998Z,34.22
2018-04-12T02:17:33.748Z,34.05
2018-04-12T02:18:07.478Z,33.60
2018-04-12T02:18:40.965Z,31.35
2018-04-12T02:19:14.684Z,28.77
2018-04-12T02:19:48.406Z,30.37
2018-04-12T02:20:22.122Z,34.20
2018-04-12T02:20:56.606Z,29.52
2018-04-12T02:21:30.320Z,30.58
2018-04-12T02:22:04.836Z,29.55
2018-04-12T02:22:39.329Z,31.27
2018-04-12T02:23:13.817Z,35.67
2018-04-12T02:23:47.566Z,29.63
2018-04-12T02:24:21.293Z,35.10
2018-04-12T02:24:55.030Z,29.08
2018-04-12T02:25:28.768Z,33.38
2018-04-12T02:26:02.518Z,30.62
2018-04-12T02:26:36.247Z,37.60
2018-04-12T02:27:09.992Z,28.75
2018-04-12T02:27:44.482Z,37.47
2018-04-12T02:28:18.977Z,33.25
2018-04-12T02:28:52.712Z,30.45
2018-04-12T02:29:27.392Z,28.77
2018-04-12T02:30:00.960Z,30.30
2018-04-12T02:30:34.680Z,32.50
2018-04-12T02:31:09.186Z,32.53
2018-04-12T02:31:43.688Z,36.13
2018-04-12T02:32:18.214Z,37.25
2018-04-12T02:32:52.724Z,38.80
2018-04-12T02:33:27.223Z,40.53
2018-04-12T02:34:01.722Z,34.28
2018-04-12T02:34:36.212Z,34.78
2018-04-12T02:35:09.936Z,33.10
2018-04-12T02:35:44.442Z,35.35
2018-04-12T02:36:18.930Z,35.97
2018-04-12T02:36:52.664Z,38.05
2018-04-12T02:37:26.435Z,32.95
2018-04-12T02:38:00.704Z,33.83
2018-04-12T02:38:34.470Z,34.55
2018-04-12T02:39:07.879Z,31.45
2018-04-12T02:39:41.624Z,38.22
2018-04-12T02:40:15.346Z,28.73
2018-04-12T02:40:49.082Z,37.47
2018-04-12T02:41:24.302Z,33.95
2018-04-12T02:41:58.036Z,31.52
2018-04-12T02:42:31.810Z,32.97
2018-04-12T02:43:04.896Z,30.45
2018-04-12T02:43:38.625Z,40.55
2018-04-12T02:44:12.342Z,32.60
2018-04-12T02:44:46.840Z,37.92
2018-04-12T02:45:21.550Z,36.80
2018-04-12T02:45:55.278Z,33.83
2018-04-12T02:46:29.016Z,41.67
2018-04-12T02:47:02.768Z,31.30
2018-04-12T02:47:36.529Z,43.40
2018-04-12T02:48:09.922Z,36.70
2018-04-12T02:48:44.418Z,37.35
2018-04-12T02:49:18.141Z,33.70
2018-04-12T02:49:51.878Z,30.45
2018-04-12T02:50:25.594Z,42.90
2018-04-12T02:51:00.096Z,37.67
2018-04-12T02:51:33.846Z,34.80
2018-04-12T02:52:07.580Z,40.67
2018-04-12T02:52:41.356Z,33.58
2018-04-12T02:53:15.082Z,42.20
2018-04-12T02:53:49.568Z,34.72
2018-04-12T02:54:23.307Z,34.47
2018-04-12T02:54:57.039Z,35.55
2018-04-12T02:55:30.774Z,34.60
2018-04-12T02:56:04.506Z,36.42
2018-04-12T02:56:38.240Z,37.67
2018-04-12T02:57:12.739Z,37.42
2018-04-12T02:57:46.484Z,33.97
2018-04-12T02:58:20.221Z,35.75
2018-04-12T02:58:53.948Z,39.55
2018-04-12T02:59:27.685Z,39.88
2018-04-12T03:00:01.443Z,38.53
2018-04-12T03:00:35.197Z,38.55
2018-04-12T03:01:09.483Z,45.47
2018-04-12T03:01:42.973Z,32.33
2018-04-12T03:02:17.478Z,35.42
2018-04-12T03:02:51.215Z,37.50
2018-04-12T03:03:24.710Z,42.90
2018-04-12T03:03:58.211Z,37.35
2018-04-12T03:04:31.950Z,35.38
2018-04-12T03:05:06.483Z,42.10
2018-04-12T03:05:40.213Z,37.60
2018-04-12T03:06:13.944Z,38.20
2018-04-12T03:06:48.456Z,42.60
2018-04-12T03:07:23.065Z,35.95
2018-04-12T03:07:57.571Z,43.35
2018-04-12T03:08:32.067Z,33.65
2018-04-12T03:09:05.907Z,38.10
2018-04-12T03:09:39.643Z,36.13
2018-04-12T03:10:13.379Z,44.67
2018-04-12T03:10:47.109Z,42.53
2018-04-12T03:11:20.870Z,36.47
2018-04-12T03:11:54.621Z,44.03
2018-04-12T03:12:28.352Z,41.35
2018-04-12T03:13:02.109Z,40.05
2018-04-12T03:13:36.617Z,37.72
2018-04-12T03:14:11.109Z,41.53
2018-04-12T03:14:44.837Z,40.58
2018-04-12T03:15:18.569Z,47.88
2018-04-12T03:15:52.309Z,44.70
2018-04-12T03:16:26.050Z,39.90
2018-04-12T03:16:59.784Z,42.65
2018-04-12T03:17:34.272Z,45.22
2018-04-12T03:18:08.026Z,46.25
2018-04-12T03:18:41.761Z,40.72
2018-04-12T03:19:15.159Z,41.83
2018-04-12T03:19:49.656Z,46.35
2018-04-12T03:20:23.368Z,46.15
2018-04-12T03:20:57.850Z,39.97
2018-04-12T03:21:31.577Z,43.17
2018-04-12T03:22:05.294Z,38.13
2018-04-12T03:22:38.690Z,42.05
2018-04-12T03:23:12.435Z,44.20
2018-04-12T03:23:46.933Z,41.30
2018-04-12T03:24:21.476Z,46.90
2018-04-12T03:24:55.209Z,46.20
2018-04-12T03:25:28.934Z,46.08
2018-04-12T03:26:03.409Z,47.03
2018-04-12T03:26:38.651Z,37.13
2018-04-12T03:27:12.367Z,39.97
2018-04-12T03:27:46.119Z,39.63
2018-04-12T03:28:19.905Z,42.70
2018-04-12T03:28:53.632Z,47.55
2018-04-12T03:29:28.136Z,45.12
2018-04-12T03:30:02.651Z,39.15
2018-04-12T03:30:36.379Z,42.88
2018-04-12T03:31:09.761Z,47.78
2018-04-12T03:31:43.161Z,50.45
2018-04-12T03:32:16.889Z,46.30
2018-04-12T03:32:51.429Z,44.08
2018-04-12T03:33:25.156Z,42.15
2018-04-12T03:33:58.876Z,53.85
2018-04-12T03:34:33.363Z,42.08
2018-04-12T03:35:07.087Z,45.58
2018-04-12T03:35:41.248Z,46.58
2018-04-12T03:36:14.966Z,44.88
2018-04-12T03:36:49.465Z,41.25
2018-04-12T03:37:23.962Z,48.53
2018-04-12T03:37:57.706Z,47.53
2018-04-12T03:38:31.413Z,48.10
2018-04-12T03:39:04.470Z,50.17
2018-04-12T03:39:38.184Z,47.15
2018-04-12T03:40:11.940Z,53.13
2018-04-12T03:40:45.660Z,52.58
2018-04-12T03:41:19.385Z,41.85
2018-04-12T03:41:53.100Z,43.97
2018-04-12T03:42:27.594Z,51.92
2018-04-12T03:43:01.344Z,50.97
2018-04-12T03:43:35.073Z,48.58
2018-04-12T03:44:09.800Z,48.40
2018-04-12T03:44:44.310Z,47.40
2018-04-12T03:45:18.816Z,49.33
2018-04-12T03:45:52.530Z,43.95
2018-04-12T03:46:26.250Z,45.30
2018-04-12T03:46:59.974Z,47.08
2018-04-12T03:47:33.714Z,50.50
2018-04-12T03:48:07.464Z,48.70
2018-04-12T03:48:41.375Z,55.03
2018-04-12T03:49:15.976Z,50.03
2018-04-12T03:49:49.898Z,51.63
2018-04-12T03:50:23.727Z,49.10
2018-04-12T03:50:57.590Z,46.10
2018-04-12T03:51:31.327Z,48.35
2018-04-12T03:52:05.058Z,51.10
2018-04-12T03:52:39.216Z,43.10
2018-04-12T03:53:12.968Z,51.25
2018-04-12T03:53:46.703Z,47.10
2018-04-12T03:54:20.442Z,46.42
2018-04-12T03:54:54.160Z,50.78
2018-04-12T03:55:27.883Z,50.47
2018-04-12T03:56:01.623Z,50.55
2018-04-12T03:56:35.350Z,49.03
2018-04-12T03:57:09.074Z,48.15
2018-04-12T03:57:43.559Z,45.53
2018-04-12T03:58:17.337Z,51.97
2018-04-12T03:58:51.071Z,47.15
2018-04-12T03:59:25.591Z,53.85
2018-04-12T03:59:59.264Z,53.40
2018-04-12T04:00:33.537Z,47.15
2018-04-12T04:01:07.264Z,53.15
2018-04-12T04:01:41.773Z,51.35
2018-04-12T04:02:16.058Z,44.97
2018-04-12T04:02:49.946Z,50.38
2018-04-12T04:03:23.706Z,42.35
2018-04-12T04:03:57.423Z,52.53
2018-04-12T04:04:31.156Z,50.47
2018-04-12T04:05:04.219Z,51.15
2018-04-12T04:05:38.708Z,50.75
2018-04-12T04:06:12.466Z,47.97
2018-04-12T04:06:46.194Z,48.28
2018-04-12T04:07:19.947Z,52.13
2018-04-12T04:07:53.856Z,54.83
2018-04-12T04:08:27.620Z,56.40
2018-04-12T04:09:01.358Z,50.90
2018-04-12T04:09:34.762Z,48.90
2018-04-12T04:10:09.258Z,54.33
2018-04-12T04:10:42.972Z,58.33
2018-04-12T04:11:16.699Z,52.42
2018-04-12T04:11:50.419Z,53.22
2018-04-12T04:12:23.940Z,50.63
2018-04-12T04:12:57.670Z,52.80
2018-04-12T04:13:31.427Z,52.40
2018-04-12T04:14:04.480Z,52.13
2018-04-12T04:14:42.270Z,51.67
2018-04-12T04:15:27.758Z,48.33
2018-04-12T04:16:12.770Z,50.28
2018-04-12T04:16:57.644Z,47.53
2018-04-12T04:17:43.316Z,52.62
2018-04-12T04:18:28.778Z,52.08
2018-04-12T04:19:14.195Z,46.25
2018-04-12T04:19:59.124Z,53.75
2018-04-12T04:20:44.089Z,46.97
2018-04-12T04:21:18.124Z,52.20
2018-04-12T04:21:51.852Z,59.65
2018-04-12T04:22:26.350Z,54.10
2018-04-12T04:23:00.844Z,62.70
2018-04-12T04:23:34.604Z,47.65
2018-04-12T04:24:09.430Z,56.28
2018-04-12T04:24:43.158Z,56.50
2018-04-12T04:25:17.675Z,53.50
2018-04-12T04:25:52.152Z,58.63
2018-04-12T04:26:25.879Z,52.88
2018-04-12T04:26:59.627Z,49.35
2018-04-12T04:27:33.358Z,51.47
2018-04-12T04:28:07.167Z,59.30
2018-04-12T04:28:41.022Z,51.88
2018-04-12T04:29:14.760Z,55.00
2018-04-12T04:29:48.483Z,53.30
2018-04-12T04:30:22.546Z,48.80
2018-04-12T04:30:56.270Z,48.83
2018-04-12T04:31:30.009Z,59.25
2018-04-12T04:32:03.751Z,54.80
2018-04-12T04:32:37.479Z,55.53
2018-04-12T04:33:11.984Z,44.65
2018-04-12T04:33:46.497Z,46.92
2018-04-12T04:34:20.990Z,50.28
2018-04-12T04:34:54.719Z,48.70
2018-04-12T04:35:28.451Z,55.92
2018-04-12T04:36:02.197Z,47.97
2018-04-12T04:36:35.933Z,53.75
2018-04-12T04:37:09.655Z,46.63
2018-04-12T04:37:43.389Z,51.83
2018-04-12T04:38:17.129Z,51.47
2018-04-12T04:38:50.894Z,54.35
2018-04-12T04:39:24.613Z,46.83
2018-04-12T04:39:58.337Z,56.65
2018-04-12T04:40:32.057Z,42.22
2018-04-12T04:41:07.474Z,43.83
2018-04-12T04:41:41.202Z,48.63
2018-04-12T04:42:14.970Z,48.78
2018-04-12T04:42:48.694Z,40.30
2018-04-12T04:43:22.481Z,46.28
2018-04-12T04:43:56.218Z,47.25
2018-04-12T04:44:29.731Z,41.72
2018-04-12T04:45:03.457Z,41.03
2018-04-12T04:45:37.197Z,50.92
2018-04-12T04:46:10.925Z,44.05
2018-04-12T04:46:44.685Z,45.38
2018-04-12T04:47:18.186Z,48.17
2018-04-12T04:47:51.699Z,41.20
2018-04-12T04:48:25.440Z,46.45
2018-04-12T04:48:59.191Z,44.03
2018-04-12T04:49:33.815Z,50.05
2018-04-12T04:50:08.313Z,50.92
2018-04-12T04:50:42.057Z,44.92
2018-04-12T04:51:15.786Z,45.72
2018-04-12T04:51:49.520Z,48.22
2018-04-12T04:52:23.283Z,47.92
2018-04-12T04:52:57.764Z,43.63
2018-04-12T04:53:31.496Z,41.33
2018-04-12T04:54:05.235Z,38.63
2018-04-12T04:54:38.619Z,43.45
2018-04-12T04:55:12.346Z,43.63
2018-04-12T04:55:46.833Z,43.20
2018-04-12T04:56:20.576Z,35.95
2018-04-12T04:56:54.091Z,32.42
2018-04-12T04:57:27.599Z,43.47
2018-04-12T04:58:01.103Z,43.13
2018-04-12T04:58:35.601Z,42.10
2018-04-12T04:59:09.346Z,39.38
2018-04-12T04:59:43.095Z,38.42
2018-04-12T05:00:17.595Z,45.00
2018-04-12T05:00:51.084Z,34.33
2018-04-12T05:01:25.397Z,38.08
2018-04-12T05:01:59.035Z,35.70
2018-04-12T05:02:32.547Z,35.95
2018-04-12T05:03:06.048Z,32.35
2018-04-12T05:03:40.545Z,32.55
2018-04-12T05:04:14.293Z,43.63
2018-04-12T05:04:48.023Z,34.15
2018-04-12T05:05:21.534Z,41.17
2018-04-12T05:05:55.801Z,37.42
2018-04-12T05:06:29.293Z,36.70
2018-04-12T05:07:03.041Z,43.25
2018-04-12T05:07:36.544Z,33.80
2018-04-12T05:08:10.051Z,34.08
2018-04-12T05:08:43.618Z,35.55
2018-04-12T05:09:17.153Z,33.90
2018-04-12T05:09:51.639Z,38.13
2018-04-12T05:10:25.155Z,35.20
2018-04-12T05:10:59.641Z,36.05
2018-04-12T05:11:33.357Z,33.97
2018-04-12T05:12:07.846Z,33.95
2018-04-12T05:12:41.586Z,39.58
2018-04-12T05:13:15.337Z,31.67
2018-04-12T05:13:49.835Z,34.33
2018-04-12T05:14:23.560Z,39.05
2018-04-12T05:14:57.281Z,32.42
2018-04-12T05:15:31.014Z,28.77
2018-04-12T05:16:04.929Z,30.83
2018-04-12T05:16:39.423Z,33.17
2018-04-12T05:17:13.949Z,35.10
2018-04-12T05:17:47.697Z,35.17
2018-04-12T05:18:21.431Z,35.83
2018-04-12T05:18:55.173Z,32.90
2018-04-12T05:19:28.911Z,33.30
2018-04-12T05:20:03.780Z,32.97
2018-04-12T05:20:37.501Z,30.88
2018-04-12T05:21:12.009Z,32.20
2018-04-12T05:21:46.291Z,31.77
2018-04-12T05:22:19.801Z,32.25
2018-04-12T05:22:54.073Z,35.40
2018-04-12T05:23:27.575Z,38.38
2018-04-12T05:24:01.335Z,32.47
2018-04-12T05:24:35.058Z,37.42
2018-04-12T05:25:08.793Z,38.38
2018-04-12T05:25:42.315Z,32.28
2018-04-12T05:26:15.811Z,39.88
2018-04-12T05:26:49.564Z,33.83
2018-04-12T05:27:23.291Z,33.95
2018-04-12T05:27:57.799Z,30.80
2018-04-12T05:28:31.521Z,33.13
2018-04-12T05:29:05.801Z,26.80
2018-04-12T05:29:38.965Z,41.42
2018-04-12T05:30:12.479Z,29.90
2018-04-12T05:30:46.973Z,29.30
2018-04-12T05:31:20.907Z,31.30
2018-04-12T05:31:54.636Z,32.17
2018-04-12T05:32:28.373Z,26.35
2018-04-12T05:33:02.871Z,32.95
2018-04-12T05:33:36.597Z,32.13
2018-04-12T05:34:10.122Z,27.52
2018-04-12T05:34:43.641Z,32.60
2018-04-12T05:35:18.133Z,34.10
2018-04-12T05:35:51.859Z,28.87
2018-04-12T05:36:25.585Z,30.92
2018-04-12T05:36:59.329Z,33.85
2018-04-12T05:37:33.505Z,35.08
2018-04-12T05:38:07.237Z,34.95
2018-04-12T05:38:40.983Z,30.02
2018-04-12T05:39:14.763Z,31.55
2018-04-12T05:39:48.499Z,29.15
2018-04-12T05:40:23.010Z,31.40
2018-04-12T05:40:58.668Z,34.80
2018-04-12T05:41:32.565Z,29.05
2018-04-12T05:42:05.616Z,27.50
2018-04-12T05:42:40.122Z,31.62
2018-04-12T05:43:14.643Z,28.80
2018-04-12T05:43:49.149Z,27.70
2018-04-12T05:44:22.979Z,25.00
2018-04-12T05:44:56.720Z,31.67
2018-04-12T05:45:31.205Z,33.30
2018-04-12T05:46:04.591Z,32.47
2018-04-12T05:46:38.317Z,31.05
2018-04-12T05:47:12.831Z,27.20
2018-04-12T05:47:46.575Z,27.48
2018-04-12T05:48:20.295Z,26.98
2018-04-12T05:48:54.779Z,33.08
2018-04-12T05:49:28.528Z,27.37
2018-04-12T05:50:02.250Z,29.77
2018-04-12T05:50:35.993Z,27.33
2018-04-12T05:51:09.707Z,27.75
2018-04-12T05:51:43.435Z,31.77
2018-04-12T05:52:17.173Z,35.22
2018-04-12T05:52:50.971Z,26.90
2018-04-12T05:53:24.865Z,24.92
2018-04-12T05:53:58.587Z,31.80
2018-04-12T05:54:32.341Z,35.60
2018-04-12T05:55:06.097Z,30.10
2018-04-12T05:55:39.825Z,29.15
2018-04-12T05:56:13.549Z,29.12
2018-04-12T05:56:47.272Z,26.87
2018-04-12T05:57:20.996Z,26.15
2018-04-12T05:57:54.735Z,35.40
2018-04-12T05:58:28.471Z,21.60
2018-04-12T05:59:02.214Z,25.67
2018-04-12T05:59:35.962Z,28.05
2018-04-12T06:00:09.430Z,31.17
2018-04-12T06:00:43.170Z,41.67
2018-04-12T06:01:16.914Z,31.62
2018-04-12T06:01:51.408Z,29.98
2018-04-12T06:02:25.894Z,25.42
2018-04-12T06:02:59.622Z,30.00
2018-04-12T06:03:33.376Z,28.80
2018-04-12T06:04:07.131Z,32.50
2018-04-12T06:04:40.874Z,27.13
2018-04-12T06:05:14.602Z,31.02
2018-04-12T06:05:48.341Z,28.00
2018-04-12T06:06:22.156Z,25.73
2018-04-12T06:06:56.654Z,25.37
2018-04-12T06:07:30.380Z,30.10
2018-04-12T06:08:03.777Z,26.40
2018-04-12T06:08:37.493Z,25.88
2018-04-12T06:09:11.229Z,40.47
2018-04-12T06:09:45.733Z,26.15
2018-04-12T06:10:20.223Z,27.70
2018-04-12T06:10:53.959Z,33.55
2018-04-12T06:11:27.687Z,29.60
2018-04-12T06:12:01.423Z,25.58
2018-04-12T06:12:35.909Z,28.62
2018-04-12T06:13:09.642Z,24.27
2018-04-12T06:13:43.816Z,31.23
2018-04-12T06:14:18.308Z,31.05
2018-04-12T06:14:52.071Z,33.15
2018-04-12T06:15:25.794Z,30.20
2018-04-12T06:15:59.216Z,29.50
2018-04-12T06:16:32.960Z,27.30
2018-04-12T06:17:06.367Z,25.85
2018-04-12T06:17:40.852Z,25.60
2018-04-12T06:18:14.578Z,27.20
2018-04-12T06:18:49.078Z,28.98
2018-04-12T06:19:23.594Z,30.17
2018-04-12T06:19:58.124Z,24.77
2018-04-12T06:20:31.848Z,28.70
2018-04-12T06:21:05.566Z,27.13
2018-04-12T06:21:39.308Z,24.48
2018-04-12T06:22:13.054Z,25.48
2018-04-12T06:22:47.554Z,24.75
2018-04-12T06:23:21.046Z,34.80
2018-04-12T06:23:55.544Z,31.12
2018-04-12T06:24:29.274Z,30.23
2018-04-12T06:25:03.328Z,28.40
2018-04-12T06:25:37.102Z,25.95
2018-04-12T06:26:10.822Z,27.62
2018-04-12T06:26:44.544Z,20.23
2018-04-12T06:27:18.274Z,29.50
2018-04-12T06:27:52.014Z,25.48
2018-04-12T06:28:25.791Z,30.55
2018-04-12T06:28:59.728Z,30.85
2018-04-12T06:29:33.669Z,29.58
2018-04-12T06:30:08.186Z,28.02
2018-04-12T06:30:41.943Z,23.62
2018-04-12T06:31:15.684Z,30.27
2018-04-12T06:31:49.854Z,31.50
2018-04-12T06:32:23.596Z,28.85
2018-04-12T06:32:57.453Z,26.65
2018-04-12T06:33:31.178Z,27.60
2018-04-12T06:34:04.928Z,29.35
2018-04-12T06:34:38.662Z,28.52
2018-04-12T06:35:12.437Z,30.88
2018-04-12T06:35:46.937Z,25.05
2018-04-12T06:36:21.602Z,27.92
2018-04-12T06:36:55.336Z,29.70
2018-04-12T06:37:29.854Z,28.02
2018-04-12T06:38:04.386Z,24.77
2018-04-12T06:38:38.112Z,28.92
2018-04-12T06:39:11.874Z,27.25
2018-04-12T06:39:45.650Z,24.70
2018-04-12T06:40:19.260Z,28.40
2018-04-12T06:40:52.996Z,26.95
2018-04-12T06:41:26.765Z,24.67
2018-04-12T06:42:00.521Z,24.85
2018-04-12T06:42:34.262Z,25.67
2018-04-12T06:43:07.994Z,25.25
2018-04-12T06:43:42.522Z,28.02
2018-04-12T06:44:16.281Z,23.00
2018-04-12T06:44:50.564Z,25.70
2018-04-12T06:45:25.592Z,23.38
2018-04-12T06:45:59.336Z,26.62
2018-04-12T06:46:33.077Z,31.65
2018-04-12T06:47:06.905Z,23.23
2018-04-12T06:47:40.649Z,26.35
2018-04-12T06:48:14.375Z,26.30
2018-04-12T06:48:48.877Z,25.52
2018-04-12T06:49:23.375Z,29.75
2018-04-12T06:49:57.131Z,27.35
2018-04-12T06:50:30.630Z,27.02
2018-04-12T06:51:04.679Z,23.48
2018-04-12T06:51:38.413Z,25.95
2018-04-12T06:52:11.945Z,31.55
2018-04-12T06:52:46.430Z,28.38
2018-04-12T06:53:20.163Z,22.80
2018-04-12T06:53:53.915Z,25.73
2018-04-12T06:54:27.675Z,21.98
2018-04-12T06:55:01.502Z,27.42
2018-04-12T06:55:35.679Z,34.05
2018-04-12T06:56:09.414Z,28.08
2018-04-12T06:56:43.904Z,27.55
2018-04-12T06:57:17.624Z,24.17
2018-04-12T06:57:51.386Z,29.63
2018-04-12T06:58:25.872Z,21.40
2018-04-12T06:58:59.602Z,22.67
2018-04-12T06:59:33.795Z,30.25
2018-04-12T07:00:07.755Z,24.92
2018-04-12T07:00:41.495Z,27.85
2018-04-12T07:01:15.218Z,29.27
2018-04-12T07:01:48.950Z,27.62
2018-04-12T07:02:22.704Z,34.65
2018-04-12T07:02:56.422Z,25.70
2018-04-12T07:03:30.146Z,30.23
2018-04-12T07:04:04.310Z,28.85
2018-04-12T07:04:40.230Z,25.17
2018-04-12T07:05:13.993Z,25.00
2018-04-12T07:05:47.775Z,31.48
2018-04-12T07:06:21.521Z,26.95
2018-04-12T07:06:55.245Z,25.55
2018-04-12T07:07:29.729Z,27.10
2018-04-12T07:08:03.469Z,26.00
2018-04-12T07:08:37.203Z,25.80
2018-04-12T07:09:10.940Z,23.67
2018-04-12T07:09:44.676Z,25.15
2018-04-12T07:10:18.461Z,25.70
2018-04-12T07:10:52.182Z,21.95
2018-04-12T07:11:25.908Z,27.05
2018-04-12T07:11:59.373Z,23.00
2018-04-12T07:12:33.863Z,22.30
2018-04-12T07:13:07.605Z,25.27
2018-04-12T07:13:41.134Z,25.25
2018-04-12T07:14:14.891Z,23.85
2018-04-12T07:14:48.621Z,23.00
2018-04-12T07:15:22.399Z,28.65
2018-04-12T07:15:56.135Z,23.17
2018-04-12T07:16:30.617Z,26.42
2018-04-12T07:17:04.349Z,26.83
2018-04-12T07:17:38.120Z,26.10
2018-04-12T07:18:12.635Z,22.95
2018-04-12T07:18:47.155Z,28.10